createdAt,value
2022-08-10T00:01:54.030Z,86.90
2022-08-10T00:04:25.050Z,87.50
2022-08-10T00:06:54.389Z,88.30
2022-08-10T00:09:22.175Z,88.90
2022-08-10T00:11:48.990Z,89.30
2022-08-10T00:14:16.169Z,90.20
2022-08-10T00:16:48.061Z,89.90
2022-08-10T00:19:16.722Z,90.00
2022-08-10T00:21:47.439Z,90.40
2022-08-10T00:24:17.552Z,90.40
2022-08-10T00:28:01.163Z,91.00
2022-08-10T00:29:34.313Z,91.10
2022-08-10T00:32:03.277Z,91.40
2022-08-10T00:34:31.551Z,91.60
2022-08-10T00:37:01.357Z,91.60
2022-08-10T00:39:29.267Z,92.10
2022-08-10T00:42:02.161Z,92.40
2022-08-10T00:44:46.447Z,92.40
2022-08-10T00:47:35.548Z,92.50
2022-08-10T00:50:01.291Z,92.60
2022-08-10T00:52:30.801Z,93.00
2022-08-10T00:55:00.949Z,93.40
2022-08-10T00:57:28.473Z,93.60
2022-08-10T00:59:58.207Z,93.90
2022-08-10T01:02:30.777Z,94.60
2022-08-10T01:05:02.099Z,94.90
2022-08-10T01:07:59.128Z,95.00
2022-08-10T01:10:43.882Z,95.70
2022-08-10T01:13:27.060Z,95.80
2022-08-10T01:16:13.280Z,96.40
2022-08-10T01:19:00.038Z,96.90
2022-08-10T01:22:04.076Z,96.90
2022-08-10T01:24:55.153Z,97.30
2022-08-10T01:27:40.561Z,97.50
2022-08-10T01:30:13.512Z,97.90
2022-08-10T01:32:46.148Z,97.90
2022-08-10T01:35:18.281Z,97.80
2022-08-10T01:37:59.490Z,97.90
2022-08-10T01:40:29.716Z,98.20
2022-08-10T01:43:07.771Z,98.30
2022-08-10T01:45:45.574Z,98.70
2022-08-10T01:48:32.078Z,98.90
2022-08-10T01:51:21.932Z,99.40
2022-08-10T01:53:58.863Z,99.80
2022-08-10T01:56:28.441Z,99.90
2022-08-10T01:59:14.404Z,99.90
2022-08-10T02:01:49.140Z,99.90
2022-08-10T02:04:20.776Z,99.90
2022-08-10T02:06:52.571Z,99.90
2022-08-10T02:09:32.746Z,99.90
2022-08-10T02:12:08.865Z,99.90
2022-08-10T02:14:42.268Z,99.90
2022-08-10T02:17:59.529Z,99.90
2022-08-10T02:20:07.226Z,99.90
2022-08-10T02:22:38.853Z,99.90
2022-08-10T02:25:41.293Z,99.90
2022-08-10T02:28:01.984Z,99.90
2022-08-10T02:30:30.208Z,99.90
2022-08-10T02:32:58.938Z,99.90
2022-08-10T02:35:30.661Z,99.90
2022-08-10T02:38:19.734Z,99.90
2022-08-10T02:45:08.181Z,99.90
2022-08-10T02:45:26.954Z,99.90
2022-08-10T02:47:09.156Z,99.90
2022-08-10T02:49:41.837Z,99.90
2022-08-10T02:52:16.548Z,99.90
2022-08-10T02:54:52.434Z,99.90
2022-08-10T02:57:24.917Z,99.90
2022-08-10T02:59:57.606Z,99.90
2022-08-10T03:02:32.545Z,99.90
2022-08-10T03:05:07.918Z,99.90
2022-08-10T03:07:46.348Z,99.90
2022-08-10T03:10:22.956Z,99.90
2022-08-10T03:12:52.803Z,99.90
2022-08-10T03:15:22.024Z,99.90
2022-08-10T03:17:57.653Z,99.90
2022-08-10T03:20:37.310Z,99.90
2022-08-10T03:23:12.856Z,99.90
2022-08-10T03:25:40.493Z,99.90
2022-08-10T03:28:08.419Z,99.90
2022-08-10T03:30:35.931Z,99.90
2022-08-10T03:33:07.652Z,99.90
2022-08-10T03:35:35.020Z,99.90
2022-08-10T03:38:04.200Z,99.90
2022-08-10T03:40:46.455Z,99.90
2022-08-10T03:43:23.520Z,99.90
2022-08-10T03:45:56.688Z,99.90
2022-08-10T03:48:42.457Z,99.90
2022-08-10T03:51:18.825Z,99.90
2022-08-10T03:54:06.231Z,99.90
2022-08-10T03:56:40.900Z,99.90
2022-08-10T03:59:10.839Z,99.90
2022-08-10T04:02:45.056Z,99.90
2022-08-10T04:04:29.743Z,99.90
2022-08-10T04:06:58.575Z,99.90
2022-08-10T04:09:53.945Z,99.90
2022-08-10T04:12:22.914Z,99.90
2022-08-10T04:14:53.263Z,99.90
2022-08-10T04:18:04.340Z,99.90
2022-08-10T04:20:37.090Z,99.90
2022-08-10T04:23:10.796Z,99.90
2022-08-10T04:25:39.673Z,99.90
2022-08-10T04:28:08.848Z,99.90
2022-08-10T04:30:36.802Z,99.90
2022-08-10T04:33:09.129Z,99.90
2022-08-10T04:35:41.955Z,99.90
2022-08-10T04:38:09.519Z,99.90
2022-08-10T04:40:39.000Z,99.90
2022-08-10T04:43:12.903Z,99.90
2022-08-10T04:45:51.466Z,99.90
2022-08-10T04:48:42.271Z,99.90
2022-08-10T04:51:15.222Z,99.90
2022-08-10T04:54:05.771Z,99.90
2022-08-10T04:56:32.874Z,99.90
2022-08-10T04:59:00.621Z,99.90
2022-08-10T05:02:21.471Z,99.90
2022-08-10T05:04:35.660Z,99.90
2022-08-10T05:07:08.215Z,99.90
2022-08-10T05:10:01.860Z,99.90
2022-08-10T05:12:24.508Z,99.90
2022-08-10T05:14:54.527Z,99.90
2022-08-10T05:17:22.512Z,99.90
2022-08-10T05:20:03.058Z,99.90
2022-08-10T05:22:35.687Z,99.90
2022-08-10T05:25:06.208Z,99.90
2022-08-10T05:27:35.999Z,99.90
2022-08-10T05:30:04.284Z,99.90
2022-08-10T05:32:55.257Z,99.90
2022-08-10T05:35:19.937Z,99.90
2022-08-10T05:38:12.588Z,99.90
2022-08-10T05:40:37.706Z,99.90
2022-08-10T05:43:05.549Z,99.90
2022-08-10T05:45:32.401Z,99.90
2022-08-10T05:48:57.252Z,99.90
2022-08-10T05:50:49.335Z,99.90
2022-08-10T05:53:59.512Z,99.90
2022-08-10T05:56:04.152Z,99.90
2022-08-10T05:58:31.098Z,99.90
2022-08-10T06:00:59.989Z,99.90
2022-08-10T06:03:34.268Z,99.90
2022-08-10T06:06:06.261Z,99.90
2022-08-10T06:08:35.466Z,99.90
2022-08-10T06:12:27.317Z,99.90
2022-08-10T06:14:16.040Z,99.90
2022-08-10T06:16:44.552Z,99.90
2022-08-10T06:19:15.336Z,99.90
2022-08-10T06:21:55.355Z,99.90
2022-08-10T06:24:33.337Z,99.90
2022-08-10T06:27:00.252Z,99.90
2022-08-10T06:29:30.729Z,99.90
2022-08-10T06:32:01.939Z,99.90
2022-08-10T06:34:39.967Z,99.90
2022-08-10T06:37:08.430Z,99.90
2022-08-10T06:39:36.900Z,99.90
2022-08-10T06:42:19.475Z,99.90
2022-08-10T06:45:12.229Z,99.90
2022-08-10T06:47:54.073Z,99.90
2022-08-10T06:50:44.904Z,99.90
2022-08-10T06:53:21.216Z,99.90
2022-08-10T06:55:58.195Z,99.00
2022-08-10T06:58:31.696Z,98.10
2022-08-10T07:01:02.883Z,97.60
2022-08-10T07:03:36.812Z,96.90
2022-08-10T07:06:06.595Z,95.60
2022-08-10T07:08:36.849Z,95.40
2022-08-10T07:11:08.797Z,95.00
2022-08-10T07:14:16.885Z,93.70
2022-08-10T07:16:28.847Z,92.40
2022-08-10T07:18:59.631Z,92.20
2022-08-10T07:21:30.805Z,91.50
2022-08-10T07:24:00.852Z,90.60
2022-08-10T07:26:32.804Z,89.60
2022-08-10T07:29:00.636Z,88.30
2022-08-10T07:31:36.010Z,88.50
2022-08-10T07:34:28.888Z,88.50
2022-08-10T07:37:00.899Z,88.40
2022-08-10T07:39:58.135Z,86.40
2022-08-10T07:42:24.730Z,84.60
2022-08-10T07:44:52.288Z,83.20
2022-08-10T07:47:53.444Z,81.80
2022-08-10T07:50:19.160Z,80.50
2022-08-10T07:52:47.738Z,80.70
2022-08-10T07:55:18.222Z,80.10
2022-08-10T07:57:48.378Z,80.00
2022-08-10T08:00:16.482Z,78.50
2022-08-10T08:02:53.966Z,78.10
2022-08-10T08:05:54.834Z,78.80
2022-08-10T08:08:16.045Z,78.90
2022-08-10T08:10:43.115Z,78.50
2022-08-10T08:13:13.728Z,77.30
2022-08-10T08:16:20.731Z,75.00
2022-08-10T08:18:32.628Z,74.30
2022-08-10T08:24:01.818Z,73.70
2022-08-10T08:24:31.048Z,72.10
2022-08-10T08:26:52.227Z,69.50
2022-08-10T08:29:22.408Z,68.10
2022-08-10T08:31:54.551Z,68.80
2022-08-10T08:34:34.507Z,69.70
2022-08-10T08:37:03.716Z,70.40
2022-08-10T08:39:36.828Z,68.20
2022-08-10T08:42:20.908Z,67.50
2022-08-10T08:45:03.257Z,65.70
2022-08-10T08:48:04.324Z,65.00
2022-08-10T08:50:57.322Z,66.10
2022-08-10T08:54:01.901Z,63.40
2022-08-10T08:56:53.949Z,63.30
2022-08-10T08:59:23.603Z,61.00
2022-08-10T09:02:18.188Z,62.60
2022-08-10T09:05:14.009Z,61.50
2022-08-10T09:08:00.148Z,59.80
2022-08-10T09:10:54.377Z,55.50
2022-08-10T09:13:40.175Z,55.10
2022-08-10T09:16:20.810Z,54.40
2022-08-10T09:19:19.682Z,53.40
2022-08-10T09:22:17.970Z,54.30
2022-08-10T09:25:09.228Z,54.50
2022-08-10T09:27:49.675Z,46.60
2022-08-10T09:30:28.425Z,45.80
2022-08-10T09:36:23.162Z,44.10
2022-08-10T09:36:27.000Z,44.50
2022-08-10T09:40:06.699Z,42.30
2022-08-10T09:42:25.822Z,42.90
2022-08-10T09:45:09.869Z,43.30
2022-08-10T09:48:15.785Z,42.80
2022-08-10T09:51:41.808Z,42.90
2022-08-10T09:54:31.114Z,44.80
2022-08-10T09:57:41.531Z,44.90
2022-08-10T10:00:12.844Z,44.70
2022-08-10T10:03:04.651Z,44.60
2022-08-10T10:06:13.749Z,43.40
2022-08-10T10:09:10.235Z,40.10
2022-08-10T10:12:13.126Z,40.70
2022-08-10T10:15:24.747Z,39.40
2022-08-10T10:18:07.565Z,39.20
2022-08-10T10:21:23.895Z,39.70
2022-08-10T10:24:39.381Z,39.00
2022-08-10T10:27:33.094Z,38.70
2022-08-10T10:30:16.024Z,37.40
2022-08-10T10:33:13.338Z,37.90
2022-08-10T10:35:56.911Z,38.20
2022-08-10T10:38:29.790Z,38.00
2022-08-10T10:41:15.432Z,37.30
2022-08-10T10:44:10.756Z,36.60
2022-08-10T10:47:12.287Z,36.30
2022-08-10T10:49:53.832Z,35.30
2022-08-10T10:52:39.092Z,34.60
2022-08-10T10:55:34.650Z,33.40
2022-08-10T10:58:48.931Z,33.00
2022-08-10T11:01:21.843Z,33.10
2022-08-10T11:04:04.958Z,33.20
2022-08-10T11:07:03.135Z,33.00
2022-08-10T11:10:05.973Z,32.20
2022-08-10T11:12:52.467Z,32.40
2022-08-10T11:15:47.624Z,31.90
2022-08-10T11:18:44.996Z,30.80
2022-08-10T11:21:32.559Z,29.80
2022-08-10T11:24:48.304Z,29.50
2022-08-10T11:27:27.311Z,30.00
2022-08-10T11:30:28.144Z,30.70
2022-08-10T11:33:33.022Z,30.40
2022-08-10T11:36:27.697Z,30.10
2022-08-10T11:39:14.300Z,29.60
2022-08-10T11:42:08.839Z,29.20
2022-08-10T11:45:00.441Z,29.30
2022-08-10T11:47:39.382Z,28.50
2022-08-10T11:50:30.528Z,27.70
2022-08-10T11:53:22.313Z,27.80
2022-08-10T11:55:56.550Z,27.80
2022-08-10T11:58:46.569Z,27.40
2022-08-10T12:01:17.453Z,26.90
2022-08-10T12:03:48.860Z,27.20
2022-08-10T12:06:39.306Z,26.70
2022-08-10T12:10:08.634Z,26.50
2022-08-10T12:11:59.227Z,27.00
2022-08-10T12:14:32.320Z,27.30
2022-08-10T12:17:27.084Z,26.90
2022-08-10T12:20:06.927Z,26.50
2022-08-10T12:22:56.781Z,26.50
2022-08-10T12:25:56.884Z,26.60
2022-08-10T12:28:49.894Z,26.20
2022-08-10T12:31:25.221Z,24.40
2022-08-10T12:34:16.828Z,23.00
2022-08-10T12:36:53.603Z,21.20
2022-08-10T12:39:26.810Z,19.80
2022-08-10T12:42:06.278Z,16.50
2022-08-10T12:44:42.909Z,10.00
2022-08-10T12:47:18.096Z,4.20
2022-08-10T12:50:29.199Z,1.00
2022-08-10T12:53:06.363Z,1.00
2022-08-10T12:55:37.340Z,1.00
2022-08-10T12:59:00.151Z,1.00
2022-08-10T13:01:15.137Z,1.00
2022-08-10T13:04:21.113Z,1.00
2022-08-10T13:06:41.560Z,1.00
2022-08-10T13:09:08.899Z,1.00
2022-08-10T13:12:35.090Z,1.00
2022-08-10T13:14:45.654Z,1.00
2022-08-10T13:17:21.184Z,1.00
2022-08-10T13:19:55.265Z,1.00
2022-08-10T13:22:33.247Z,1.00
2022-08-10T13:25:03.015Z,1.00
2022-08-10T13:28:01.208Z,1.00
2022-08-10T13:30:37.377Z,1.00
2022-08-10T13:33:07.450Z,1.00
2022-08-10T13:35:38.273Z,1.00
2022-08-10T13:38:07.212Z,1.00
2022-08-10T13:40:36.073Z,1.00
2022-08-10T13:43:07.534Z,1.00
2022-08-10T13:45:42.337Z,1.00
2022-08-10T13:48:19.617Z,1.00
2022-08-10T13:50:49.437Z,1.00
2022-08-10T13:53:18.053Z,1.00
2022-08-10T13:55:57.178Z,1.00
2022-08-10T13:58:42.359Z,1.00
2022-08-10T14:01:21.383Z,1.00
2022-08-10T14:03:50.212Z,1.00
2022-08-10T14:06:22.071Z,1.00
2022-08-10T14:09:12.845Z,1.00
2022-08-10T14:11:43.950Z,1.00
2022-08-10T14:14:24.600Z,1.00
2022-08-10T14:16:52.655Z,1.00
2022-08-10T14:19:29.824Z,1.00
2022-08-10T14:21:59.528Z,1.00
2022-08-10T14:24:34.005Z,1.00
2022-08-10T14:27:12.329Z,1.00
2022-08-10T14:29:51.497Z,1.00
2022-08-10T14:32:21.965Z,1.00
2022-08-10T14:36:16.288Z,1.00
2022-08-10T14:37:54.451Z,1.00
2022-08-10T14:40:28.702Z,1.00
2022-08-10T14:43:04.637Z,1.00
2022-08-10T14:45:37.541Z,1.00
2022-08-10T14:48:20.208Z,1.00
2022-08-10T14:50:55.836Z,1.00
2022-08-10T14:53:27.251Z,1.00
2022-08-10T14:56:00.873Z,1.00
2022-08-10T14:58:36.070Z,1.00
2022-08-10T15:01:07.887Z,1.00
2022-08-10T15:04:01.339Z,1.00
2022-08-10T15:06:30.253Z,1.00
2022-08-10T15:09:19.418Z,1.00
2022-08-10T15:12:14.034Z,2.20
2022-08-10T15:14:49.906Z,3.10
2022-08-10T15:17:28.341Z,4.50
2022-08-10T15:20:13.798Z,6.00
2022-08-10T15:23:01.079Z,7.60
2022-08-10T15:25:29.994Z,8.80
2022-08-10T15:28:06.365Z,9.10
2022-08-10T15:30:40.944Z,9.70
2022-08-10T15:33:56.879Z,10.80
2022-08-10T15:36:37.402Z,11.60
2022-08-10T15:39:17.259Z,12.70
2022-08-10T15:42:19.984Z,13.10
2022-08-10T15:44:50.011Z,14.20
2022-08-10T15:47:50.711Z,14.60
2022-08-10T15:50:25.203Z,15.10
2022-08-10T15:53:16.080Z,15.30
2022-08-10T15:56:10.245Z,14.60
2022-08-10T15:58:49.994Z,12.70
2022-08-10T16:02:13.934Z,12.00
2022-08-10T16:05:00.485Z,11.60
2022-08-10T16:07:57.370Z,12.20
2022-08-10T16:10:30.871Z,13.50
2022-08-10T16:13:01.317Z,14.10
2022-08-10T16:15:32.557Z,14.40
2022-08-10T16:18:09.709Z,13.80
2022-08-10T16:20:58.459Z,14.40
2022-08-10T16:23:39.707Z,15.00
2022-08-10T16:26:14.686Z,14.50
2022-08-10T16:28:57.319Z,12.70
2022-08-10T16:31:27.618Z,11.90
2022-08-10T16:33:57.835Z,12.20
2022-08-10T16:36:37.065Z,12.30
2022-08-10T16:39:08.048Z,12.80
2022-08-10T16:42:03.201Z,12.50
2022-08-10T16:44:40.591Z,12.30
2022-08-10T16:47:09.839Z,12.10
2022-08-10T16:49:41.917Z,12.60
2022-08-10T16:52:11.081Z,13.20
2022-08-10T16:54:41.392Z,13.60
2022-08-10T16:57:09.562Z,14.70
2022-08-10T16:59:39.057Z,15.00
2022-08-10T17:02:07.398Z,14.30
2022-08-10T17:04:37.942Z,15.20
2022-08-10T17:07:12.245Z,15.70
2022-08-10T17:09:40.874Z,15.90
2022-08-10T17:12:13.516Z,16.70
2022-08-10T17:14:42.727Z,17.00
2022-08-10T17:17:21.950Z,17.50
2022-08-10T17:19:50.911Z,17.70
2022-08-10T17:22:24.219Z,18.10
2022-08-10T17:24:57.298Z,18.50
2022-08-10T17:28:05.031Z,18.70
2022-08-10T17:30:34.249Z,19.30
2022-08-10T17:33:15.326Z,19.00
2022-08-10T17:35:47.002Z,19.20
2022-08-10T17:38:21.738Z,19.10
2022-08-10T17:41:03.705Z,19.40
2022-08-10T17:43:46.687Z,20.10
2022-08-10T17:46:21.132Z,21.20
2022-08-10T17:48:48.526Z,22.10
2022-08-10T17:51:18.500Z,22.60
2022-08-10T17:53:51.301Z,22.50
2022-08-10T17:56:21.128Z,22.50
2022-08-10T17:59:11.525Z,22.80
2022-08-10T18:01:58.398Z,23.90
2022-08-10T18:04:41.380Z,23.60
2022-08-10T18:07:12.774Z,23.80
2022-08-10T18:09:42.133Z,23.80
2022-08-10T18:12:18.134Z,24.20
2022-08-10T18:14:50.111Z,24.40
2022-08-10T18:17:31.974Z,24.90
2022-08-10T18:20:10.006Z,25.10
2022-08-10T18:22:47.476Z,25.40
2022-08-10T18:25:27.477Z,26.40
2022-08-10T18:28:03.976Z,25.60
2022-08-10T18:30:36.435Z,25.70
2022-08-10T18:33:09.285Z,26.00
2022-08-10T18:35:39.785Z,26.10
2022-08-10T18:38:07.740Z,26.20
2022-08-10T18:40:38.555Z,26.80
2022-08-10T18:44:10.625Z,26.80
2022-08-10T18:45:58.749Z,27.00
2022-08-10T18:48:40.546Z,28.00
2022-08-10T18:51:11.712Z,27.80
2022-08-10T18:53:50.740Z,28.50
2022-08-10T18:56:43.933Z,29.20
2022-08-10T19:00:03.529Z,29.80
2022-08-10T19:02:37.625Z,30.10
2022-08-10T19:05:32.947Z,30.30
2022-08-10T19:08:31.125Z,31.70
2022-08-10T19:11:19.641Z,31.70
2022-08-10T19:14:00.407Z,32.70
2022-08-10T19:17:01.768Z,33.00
2022-08-10T19:20:00.442Z,32.10
2022-08-10T19:22:31.903Z,33.00
2022-08-10T19:26:32.892Z,33.00
2022-08-10T19:28:51.368Z,33.30
2022-08-10T19:31:24.169Z,33.60
2022-08-10T19:34:47.329Z,34.00
2022-08-10T19:37:44.787Z,34.40
2022-08-10T19:40:47.527Z,34.90
2022-08-10T19:43:20.808Z,35.60
2022-08-10T19:46:20.589Z,35.70
2022-08-10T19:48:56.232Z,35.70
2022-08-10T19:51:41.877Z,35.70
2022-08-10T19:54:41.413Z,36.50
2022-08-10T19:57:24.803Z,37.00
2022-08-10T20:00:18.884Z,37.30
2022-08-10T20:03:14.219Z,37.30
2022-08-10T20:06:17.962Z,37.60
2022-08-10T20:09:10.807Z,37.90
2022-08-10T20:11:59.359Z,38.00
2022-08-10T20:14:34.947Z,37.90
2022-08-10T20:17:16.223Z,39.00
2022-08-10T20:20:06.082Z,40.10
2022-08-10T20:22:40.080Z,41.20
2022-08-10T20:25:18.065Z,42.20
2022-08-10T20:28:02.474Z,43.10
2022-08-10T20:30:33.432Z,43.80
2022-08-10T20:33:13.740Z,44.60
2022-08-10T20:35:48.925Z,45.30
2022-08-10T20:38:27.481Z,45.70
2022-08-10T20:41:07.757Z,46.10
2022-08-10T20:43:43.311Z,46.30
2022-08-10T20:46:33.718Z,46.80
2022-08-10T20:49:15.636Z,47.20
2022-08-10T20:51:58.448Z,47.50
2022-08-10T20:54:44.140Z,48.20
2022-08-10T20:57:54.752Z,48.30
2022-08-10T21:00:19.349Z,48.80
2022-08-10T21:03:06.629Z,49.20
2022-08-10T21:06:12.065Z,48.90
2022-08-10T21:09:12.818Z,49.20
2022-08-10T21:12:17.359Z,49.50
2022-08-10T21:15:10.344Z,49.70
2022-08-10T21:17:43.110Z,50.50
2022-08-10T21:20:47.348Z,50.10
2022-08-10T21:23:16.857Z,50.30
2022-08-10T21:26:08.809Z,50.30
2022-08-10T21:29:00.048Z,50.30
2022-08-10T21:32:03.348Z,50.40
2022-08-10T21:35:36.270Z,50.50
2022-08-10T21:38:15.769Z,50.60
2022-08-10T21:41:17.391Z,50.50
2022-08-10T21:44:29.321Z,50.50
2022-08-10T21:48:04.847Z,50.40
2022-08-10T21:50:55.272Z,50.50
2022-08-10T21:53:53.010Z,51.00
2022-08-10T21:56:59.520Z,51.00
2022-08-10T21:59:57.070Z,51.00
2022-08-10T22:02:50.387Z,51.30
2022-08-10T22:05:56.893Z,52.00
2022-08-10T22:08:52.280Z,51.60
2022-08-10T22:11:43.011Z,51.90
2022-08-10T22:14:33.637Z,51.80
2022-08-10T22:18:03.569Z,52.00
2022-08-10T22:20:41.314Z,52.00
2022-08-10T22:23:48.374Z,52.10
2022-08-10T22:26:56.537Z,52.30
2022-08-10T22:30:04.363Z,52.30
2022-08-10T22:32:57.899Z,52.50
2022-08-10T22:35:53.052Z,52.60
2022-08-10T22:38:57.805Z,53.30
2022-08-10T22:41:55.641Z,52.60
2022-08-10T22:44:46.762Z,52.70
2022-08-10T22:47:33.310Z,52.50
2022-08-10T22:50:07.424Z,52.90
2022-08-10T22:53:03.192Z,52.90
2022-08-10T22:55:53.263Z,52.80
2022-08-10T22:58:38.966Z,52.60
2022-08-10T23:02:08.333Z,52.50
2022-08-10T23:04:38.342Z,52.50
2022-08-10T23:07:16.282Z,52.40
2022-08-10T23:09:49.021Z,52.40
2022-08-10T23:12:25.672Z,52.70
2022-08-10T23:15:16.063Z,53.00
2022-08-10T23:18:09.012Z,53.00
2022-08-10T23:20:40.320Z,53.20
2022-08-10T23:23:13.442Z,53.40
2022-08-10T23:25:56.844Z,53.40
2022-08-10T23:28:39.283Z,53.60
2022-08-10T23:31:17.628Z,54.10
2022-08-10T23:34:08.515Z,54.00
2022-08-10T23:36:39.721Z,53.90
2022-08-10T23:39:26.299Z,53.60
2022-08-10T23:42:03.038Z,53.90
2022-08-10T23:44:37.265Z,53.70
2022-08-10T23:47:05.361Z,53.90
2022-08-10T23:49:35.465Z,53.70
2022-08-10T23:52:13.832Z,54.00
2022-08-10T23:54:46.641Z,53.90
2022-08-10T23:57:20.109Z,53.90
